ATOK1: Verdigris River, Altoona, KS

Data processed at Fri May 24 2019 23:50


All information presented herein is the property of the government of the United States of America and may be revised or deleted at any time without prior notice.
Dissemination of this information without the expressed written consent of the Public Affairs Office, Tulsa District U.S. Army Corps of Engineers is strictly prohibited.
These data are gathered electronically and, as presented, have not undergone any form of quality control. These data are not guaranteed to be valid or correct.
Go to home page.
Go to station list.
Go to home page.

Upstream stations:

Downstream station:
Previous Day
Next Day
Current Day
    
SHEF ID:       ATOK1     VERDIGRIS R NR ALTOONA, KS
STATION TYPE:  
Regulating: Stage =    19.00, Flow =    12698

               PRECIP     STAGE  RIV-FLOW  BAT-LOAD
                   in        ft       cfs      volt
              Ccp-Rev   Ccp-Rev   Ccp-Rev   Ccp-Rev
(US/Central)
05/24 00:00      0.00     19.16     13188     12.95
05/24 01:00      0.00     19.15     13146     12.95
05/24 02:00      0.00     19.14     13103     12.89
05/24 03:00      0.00     19.13     13061     12.89
05/24 04:00      0.00     19.13     13061     12.83
05/24 05:00      0.00     19.05     12818     12.89
05/24 06:00      0.00     19.02     12746     12.83
05/24 07:00      0.00     19.00     12698     12.83
05/24 08:00      0.00     18.96     12603     13.12
05/24 09:00      0.00     18.95     12579     13.18
05/24 10:00      0.00     18.93     12531     12.89
05/24 11:00      0.10     18.88     12413     13.30
05/24 12:00      0.01     18.86     12366     13.65
05/24 13:00      0.00     18.84     12319     13.59
05/24 14:00      0.00     18.79     12202     13.53
05/24 15:00      0.00     18.77     12155     13.36
05/24 16:00      0.00     18.70     11993     13.36
05/24 17:00      0.00     18.67     11924     13.30
05/24 18:00      0.00     18.65     11878     13.18
05/24 19:00      0.00     18.58     11719     13.07
05/24 20:00      0.00     18.52     11583     13.00
05/24 21:00      0.02     18.48     11493     12.95
05/24 22:00      0.65     18.61     11787     12.95
05/24 23:00      0.04     18.67     11924     12.89